Terminal Aerodrome Forecast
Issued by NWS

Home | Current Version | Previous Version | Text Only | Print | Product List | Glossary On
Versions: 1 2 3 4 5 6 7 8 9 10 11 12 13 14 15 16 17 18 19 20 21 22 23
000
FTUS41 KBGM 232332
TAFELM
TAF
KELM 232332Z 2400/2424 VRB06KT P6SM -SHRA BKN050
      TEMPO 2400/2404 3SM TSRA BR OVC025CB
     FM240400 VRB05KT 5SM -SHRA BR OVC008
     FM241400 26008KT P6SM -SHRA BKN012
     FM241800 25007KT P6SM BKN035=

USA.gov is the U.S. government's official web portal to all federal, state and local government web resources and services.